createdAt,value
2019-02-15T00:02:03.285Z,10.23
2019-02-15T00:04:32.919Z,13.80
2019-02-15T00:07:02.570Z,11.97
2019-02-15T00:09:32.255Z,11.20
2019-02-15T00:12:02.299Z,9.33
2019-02-15T00:14:37.584Z,12.80
2019-02-15T00:17:07.765Z,11.43
2019-02-15T00:19:39.006Z,12.57
2019-02-15T00:22:08.705Z,8.60
2019-02-15T00:24:38.351Z,9.57
2019-02-15T00:27:08.010Z,10.20
2019-02-15T00:29:37.710Z,10.43
2019-02-15T00:32:07.314Z,9.87
2019-02-15T00:34:37.111Z,10.53
2019-02-15T00:37:06.782Z,10.47
2019-02-15T00:39:36.617Z,11.80
2019-02-15T00:42:06.290Z,11.77
2019-02-15T00:44:35.931Z,10.23
2019-02-15T00:47:16.087Z,9.67
2019-02-15T00:49:46.216Z,13.17
2019-02-15T00:52:26.584Z,9.60
2019-02-15T00:55:00.801Z,8.90
2019-02-15T00:57:32.397Z,9.40
2019-02-15T01:00:06.569Z,12.17
2019-02-15T01:02:56.329Z,8.90
2019-02-15T01:05:43.852Z,7.70
2019-02-15T01:08:15.179Z,11.70
2019-02-15T01:11:01.674Z,12.60
2019-02-15T01:13:31.409Z,8.27
2019-02-15T01:16:01.301Z,8.53
2019-02-15T01:18:31.009Z,9.07
2019-02-15T01:21:00.634Z,7.10
2019-02-15T01:23:30.348Z,9.13
2019-02-15T01:26:01.949Z,8.40
2019-02-15T01:28:33.538Z,11.03
2019-02-15T01:31:04.858Z,10.80
2019-02-15T01:33:45.489Z,11.07
2019-02-15T01:36:22.785Z,10.47
2019-02-15T01:39:00.174Z,9.80
2019-02-15T01:41:37.320Z,6.60
2019-02-15T01:44:14.459Z,8.67
2019-02-15T01:46:48.597Z,8.97
2019-02-15T01:49:18.620Z,9.90
2019-02-15T01:51:48.737Z,10.53
2019-02-15T01:54:18.407Z,16.77
2019-02-15T01:56:48.023Z,8.17
2019-02-15T01:59:17.755Z,8.93
2019-02-15T02:01:47.681Z,8.87
2019-02-15T02:04:17.706Z,10.33
2019-02-15T02:06:47.401Z,13.00
2019-02-15T02:09:17.879Z,10.47
2019-02-15T02:11:47.572Z,10.50
2019-02-15T02:14:17.925Z,9.53
2019-02-15T02:16:47.577Z,9.63
2019-02-15T02:19:17.270Z,9.37
2019-02-15T02:21:47.063Z,7.17
2019-02-15T02:24:16.813Z,8.53
2019-02-15T02:26:46.504Z,10.40
2019-02-15T02:29:16.212Z,9.77
2019-02-15T02:31:45.851Z,12.23
2019-02-15T02:34:15.750Z,10.10
2019-02-15T02:36:55.273Z,12.50
2019-02-15T02:39:25.079Z,11.00
2019-02-15T02:41:54.887Z,7.70
2019-02-15T02:44:24.580Z,9.70
2019-02-15T02:46:54.263Z,10.70
2019-02-15T02:49:23.889Z,9.23
2019-02-15T02:51:53.596Z,9.00
2019-02-15T02:54:23.339Z,10.73
2019-02-15T02:56:53.490Z,9.60
2019-02-15T02:59:23.218Z,9.40
2019-02-15T03:01:53.210Z,8.40
2019-02-15T03:04:22.901Z,7.40
2019-02-15T03:06:52.540Z,9.23
2019-02-15T03:09:22.212Z,10.20
2019-02-15T03:11:51.930Z,7.00
2019-02-15T03:14:21.627Z,8.97
2019-02-15T03:16:51.315Z,10.03
2019-02-15T03:19:21.018Z,8.53
2019-02-15T03:21:50.715Z,11.00
2019-02-15T03:24:20.418Z,7.77
2019-02-15T03:26:50.047Z,7.60
2019-02-15T03:29:19.762Z,8.00
2019-02-15T03:31:49.428Z,9.57
2019-02-15T03:34:19.327Z,10.13
2019-02-15T03:36:56.449Z,7.47
2019-02-15T03:39:33.389Z,7.70
2019-02-15T03:42:03.630Z,12.60
2019-02-15T03:44:33.526Z,10.10
2019-02-15T03:47:03.234Z,10.30
2019-02-15T03:49:33.031Z,11.07
2019-02-15T03:52:02.727Z,11.10
2019-02-15T03:54:32.476Z,9.30
2019-02-15T03:57:02.595Z,8.40
2019-02-15T03:59:32.335Z,11.10
2019-02-15T04:02:02.139Z,9.97
2019-02-15T04:04:32.123Z,12.53
2019-02-15T04:07:01.871Z,10.70
2019-02-15T04:09:31.501Z,11.27
2019-02-15T04:12:01.239Z,10.30
2019-02-15T04:14:33.168Z,12.57
2019-02-15T04:17:02.171Z,11.00
2019-02-15T04:19:32.121Z,11.23
2019-02-15T04:22:01.749Z,9.07
2019-02-15T04:24:31.413Z,10.37
2019-02-15T04:27:01.007Z,11.57
2019-02-15T04:29:30.670Z,9.10
2019-02-15T04:32:00.446Z,10.77
2019-02-15T04:34:30.594Z,10.20
2019-02-15T04:37:00.187Z,18.70
2019-02-15T04:39:29.899Z,12.47
2019-02-15T04:41:59.813Z,9.47
2019-02-15T04:44:29.869Z,12.13
2019-02-15T04:46:59.546Z,10.43
2019-02-15T04:49:29.169Z,11.10
2019-02-15T04:51:59.068Z,11.53
2019-02-15T04:54:28.712Z,11.47
2019-02-15T04:56:58.405Z,11.43
2019-02-15T04:59:28.066Z,10.67
2019-02-15T05:01:57.732Z,11.10
2019-02-15T05:04:27.618Z,10.70
2019-02-15T05:06:57.270Z,11.17
2019-02-15T05:09:27.250Z,9.10
2019-02-15T05:11:56.881Z,12.03
2019-02-15T05:14:26.482Z,12.57
2019-02-15T05:16:56.140Z,14.33
2019-02-15T05:19:25.732Z,8.93
2019-02-15T05:21:55.394Z,13.00
2019-02-15T05:24:25.396Z,13.30
2019-02-15T05:26:55.072Z,12.83
2019-02-15T05:29:24.715Z,11.93
2019-02-15T05:31:54.634Z,10.83
2019-02-15T05:34:24.623Z,12.73
2019-02-15T05:37:14.474Z,12.47
2019-02-15T05:39:44.097Z,14.57
2019-02-15T05:42:13.841Z,10.50
2019-02-15T05:44:43.472Z,12.17
2019-02-15T05:47:13.078Z,10.73
2019-02-15T05:49:42.762Z,14.10
2019-02-15T05:52:12.447Z,15.27
2019-02-15T05:54:42.171Z,16.13
2019-02-15T05:57:11.767Z,13.70
2019-02-15T05:59:41.459Z,12.50
2019-02-15T06:02:11.681Z,16.50
2019-02-15T06:04:41.310Z,10.60
2019-02-15T06:07:30.370Z,11.73
2019-02-15T06:10:00.322Z,10.67
2019-02-15T06:12:29.961Z,11.83
2019-02-15T06:14:59.584Z,12.60
2019-02-15T06:17:29.189Z,11.90
2019-02-15T06:19:58.838Z,11.80
2019-02-15T06:22:28.435Z,11.10
2019-02-15T06:24:58.142Z,10.97
2019-02-15T06:27:28.181Z,18.53
2019-02-15T06:29:58.098Z,14.33
2019-02-15T06:32:27.746Z,12.50
2019-02-15T06:34:57.337Z,15.43
2019-02-15T06:37:27.065Z,13.97
2019-02-15T06:39:56.745Z,16.20
2019-02-15T06:42:26.374Z,11.90
2019-02-15T06:44:56.019Z,11.00
2019-02-15T06:47:25.956Z,12.93
2019-02-15T06:49:55.678Z,17.63
2019-02-15T06:52:25.439Z,12.53
2019-02-15T06:54:55.054Z,12.03
2019-02-15T06:57:24.674Z,16.40
2019-02-15T06:59:55.931Z,11.73
2019-02-15T07:02:29.799Z,13.10
2019-02-15T07:05:10.035Z,13.20
2019-02-15T07:07:39.663Z,10.50
2019-02-15T07:10:09.364Z,14.77
2019-02-15T07:12:38.978Z,16.50
2019-02-15T07:15:08.766Z,16.00
2019-02-15T07:17:38.444Z,15.23
2019-02-15T07:20:10.805Z,12.40
2019-02-15T07:22:40.559Z,15.23
2019-02-15T07:25:11.963Z,15.83
2019-02-15T07:27:41.937Z,13.90
2019-02-15T07:30:15.390Z,14.40
2019-02-15T07:32:44.591Z,11.53
2019-02-15T07:35:14.603Z,11.60
2019-02-15T07:37:44.334Z,15.77
2019-02-15T07:40:13.970Z,14.50
2019-02-15T07:42:44.040Z,12.13
2019-02-15T07:45:13.806Z,13.37
2019-02-15T07:47:43.506Z,13.00
2019-02-15T07:50:14.294Z,14.80
2019-02-15T07:52:43.998Z,16.10
2019-02-15T07:55:13.703Z,14.40
2019-02-15T07:57:43.739Z,11.10
2019-02-15T08:00:14.908Z,14.83
2019-02-15T08:02:44.615Z,13.40
2019-02-15T08:05:14.395Z,14.28
2019-02-15T08:07:44.012Z,14.07
2019-02-15T08:10:15.144Z,20.27
2019-02-15T08:12:44.816Z,14.00
2019-02-15T08:15:14.778Z,14.30
2019-02-15T08:17:44.412Z,17.80
2019-02-15T08:20:14.395Z,15.70
2019-02-15T08:22:44.147Z,13.30
2019-02-15T08:25:15.059Z,16.90
2019-02-15T08:27:44.734Z,16.40
2019-02-15T08:30:14.527Z,16.40
2019-02-15T08:32:44.152Z,16.40
2019-02-15T08:35:13.894Z,14.13
2019-02-15T08:37:43.802Z,14.20
2019-02-15T08:40:13.575Z,25.87
2019-02-15T08:42:43.327Z,21.63
2019-02-15T08:45:13.537Z,22.77
2019-02-15T08:47:43.334Z,17.53
2019-02-15T08:50:13.585Z,17.57
2019-02-15T08:52:43.263Z,17.43
2019-02-15T08:55:13.300Z,13.63
2019-02-15T08:57:42.937Z,14.20
2019-02-15T09:00:13.608Z,12.60
2019-02-15T09:02:43.356Z,8.43
2019-02-15T09:05:13.245Z,9.83
2019-02-15T09:07:42.958Z,12.37
2019-02-15T09:10:15.662Z,9.20
2019-02-15T09:12:45.405Z,10.10
2019-02-15T09:15:18.063Z,8.20
2019-02-15T09:17:48.095Z,13.40
2019-02-15T09:20:17.803Z,13.23
2019-02-15T09:22:47.581Z,14.90
2019-02-15T09:25:17.295Z,13.70
2019-02-15T09:28:05.372Z,9.13
2019-02-15T09:30:35.128Z,8.80
2019-02-15T09:33:05.164Z,8.93
2019-02-15T09:35:34.888Z,9.87
2019-02-15T09:38:04.988Z,12.23
2019-02-15T09:40:34.709Z,8.53
2019-02-15T09:43:04.821Z,11.77
2019-02-15T09:45:34.945Z,10.10
2019-02-15T09:48:04.736Z,11.00
2019-02-15T09:50:34.527Z,10.77
2019-02-15T09:53:04.683Z,8.50
2019-02-15T09:55:34.394Z,10.60
2019-02-15T09:58:07.273Z,8.37
2019-02-15T10:00:39.861Z,11.70
2019-02-15T10:03:09.590Z,7.23
2019-02-15T10:05:39.586Z,11.60
2019-02-15T10:08:09.621Z,11.33
2019-02-15T10:10:39.281Z,6.27
2019-02-15T10:13:09.002Z,7.20
2019-02-15T10:15:38.707Z,7.73
2019-02-15T10:18:08.433Z,6.13
2019-02-15T10:20:38.173Z,8.40
2019-02-15T10:23:08.178Z,8.30
2019-02-15T10:25:37.792Z,11.60
2019-02-15T10:28:07.495Z,7.40
2019-02-15T10:30:37.486Z,6.70
2019-02-15T10:33:07.430Z,9.07
2019-02-15T10:35:37.134Z,11.50
2019-02-15T10:38:07.070Z,8.40
2019-02-15T10:40:37.501Z,6.40
2019-02-15T10:43:07.208Z,8.90
2019-02-15T10:45:37.295Z,8.77
2019-02-15T10:48:07.160Z,9.33
2019-02-15T10:50:37.228Z,7.60
2019-02-15T10:53:06.970Z,8.17
2019-02-15T10:55:38.059Z,8.63
2019-02-15T10:58:07.950Z,10.20
2019-02-15T11:00:37.683Z,7.87
2019-02-15T11:03:07.427Z,7.73
2019-02-15T11:05:37.175Z,9.53
2019-02-15T11:08:07.070Z,6.77
2019-02-15T11:10:36.707Z,8.07
2019-02-15T11:13:06.430Z,9.93
2019-02-15T11:15:36.062Z,7.53
2019-02-15T11:18:05.777Z,9.67
2019-02-15T11:20:35.783Z,9.77
2019-02-15T11:23:05.557Z,7.10
2019-02-15T11:25:35.195Z,7.83
2019-02-15T11:28:04.868Z,8.20
2019-02-15T11:30:34.928Z,6.67
2019-02-15T11:33:04.728Z,7.30
2019-02-15T11:35:34.436Z,6.60
2019-02-15T11:38:04.136Z,7.40
2019-02-15T11:40:33.815Z,5.67
2019-02-15T11:43:04.000Z,7.00
2019-02-15T11:45:33.695Z,5.03
2019-02-15T11:48:03.446Z,4.80
2019-02-15T11:50:33.214Z,5.37
2019-02-15T11:53:03.241Z,5.43
2019-02-15T11:55:33.211Z,6.00
2019-02-15T11:58:02.804Z,5.27
2019-02-15T12:00:35.659Z,4.90
2019-02-15T12:03:05.372Z,4.60
2019-02-15T12:05:35.069Z,5.13
2019-02-15T12:08:04.862Z,4.40
2019-02-15T12:10:34.897Z,4.07
2019-02-15T12:13:04.645Z,5.00
2019-02-15T12:15:34.268Z,4.10
2019-02-15T12:18:03.998Z,4.27
2019-02-15T12:20:33.694Z,5.10
2019-02-15T12:23:03.384Z,4.00
2019-02-15T12:25:33.057Z,4.30
2019-02-15T12:28:02.702Z,3.80
2019-02-15T12:30:32.409Z,3.57
2019-02-15T12:33:02.117Z,4.73
2019-02-15T12:35:31.802Z,3.30
2019-02-15T12:38:01.923Z,3.83
2019-02-15T12:40:31.869Z,4.00
2019-02-15T12:43:01.502Z,3.97
2019-02-15T12:45:31.645Z,3.90
2019-02-15T12:48:01.254Z,3.90
2019-02-15T12:50:31.168Z,4.60
2019-02-15T12:53:00.884Z,4.00
2019-02-15T12:55:30.535Z,4.73
2019-02-15T12:58:00.151Z,5.43
2019-02-15T13:00:30.045Z,3.77
2019-02-15T13:02:59.735Z,3.47
2019-02-15T13:05:29.744Z,4.10
2019-02-15T13:07:59.520Z,4.20
2019-02-15T13:10:30.849Z,4.30
2019-02-15T13:13:00.522Z,3.77
2019-02-15T13:15:30.627Z,6.73
2019-02-15T13:18:01.743Z,2.97
2019-02-15T13:20:31.375Z,4.13
2019-02-15T13:23:01.069Z,3.43
2019-02-15T13:25:36.603Z,3.30
2019-02-15T13:28:02.230Z,3.20
2019-02-15T13:30:31.996Z,3.07
2019-02-15T13:33:01.611Z,6.10
2019-02-15T13:35:31.263Z,1.90
2019-02-15T13:38:01.112Z,1.90
2019-02-15T13:40:30.814Z,2.20
2019-02-15T13:43:00.414Z,2.40
2019-02-15T13:45:30.182Z,2.40
2019-02-15T13:47:59.896Z,2.40
2019-02-15T13:50:29.545Z,2.10
2019-02-15T13:52:59.191Z,4.53
2019-02-15T13:55:29.002Z,8.23
2019-02-15T13:57:59.223Z,3.40
2019-02-15T14:00:28.883Z,6.30
2019-02-15T14:02:58.703Z,6.10
2019-02-15T14:05:28.705Z,2.40
2019-02-15T14:07:58.895Z,5.40
2019-02-15T14:10:29.021Z,2.67
2019-02-15T14:12:58.884Z,5.53
2019-02-15T14:15:28.940Z,4.80
2019-02-15T14:17:58.682Z,2.33
2019-02-15T14:20:28.451Z,3.30
2019-02-15T14:22:58.517Z,2.40
2019-02-15T14:25:28.565Z,2.27
2019-02-15T14:27:58.750Z,6.33
2019-02-15T14:30:28.876Z,3.50
2019-02-15T14:32:58.621Z,2.97
2019-02-15T14:35:28.550Z,4.27
2019-02-15T14:37:58.616Z,4.87
2019-02-15T14:40:28.284Z,3.20
2019-02-15T14:42:57.960Z,2.33
2019-02-15T14:45:39.724Z,2.43
2019-02-15T14:48:09.342Z,2.30
2019-02-15T14:50:39.055Z,1.87
2019-02-15T14:53:08.817Z,2.40
2019-02-15T14:55:38.475Z,3.70
2019-02-15T14:58:08.173Z,3.70
2019-02-15T15:00:38.187Z,3.63
2019-02-15T15:03:08.316Z,1.80
2019-02-15T15:05:38.116Z,3.70
2019-02-15T15:08:07.827Z,1.93
2019-02-15T15:10:37.499Z,1.93
2019-02-15T15:13:07.214Z,3.40
2019-02-15T15:15:37.163Z,2.57
2019-02-15T15:18:13.280Z,2.77
2019-02-15T15:20:38.310Z,3.80
2019-02-15T15:23:08.099Z,2.40
2019-02-15T15:25:37.852Z,3.13
2019-02-15T15:28:07.973Z,5.53
2019-02-15T15:30:37.814Z,2.90
2019-02-15T15:33:07.447Z,6.40
2019-02-15T15:35:37.217Z,3.50
2019-02-15T15:38:06.950Z,3.23
2019-02-15T15:40:36.643Z,5.67
2019-02-15T15:43:06.351Z,5.00
2019-02-15T15:45:36.124Z,5.90
2019-02-15T15:48:05.888Z,5.00
2019-02-15T15:50:35.594Z,6.10
2019-02-15T15:53:05.317Z,7.03
2019-02-15T15:55:35.025Z,5.07
2019-02-15T15:58:04.700Z,9.23
2019-02-15T16:00:39.000Z,9.63
2019-02-15T16:03:06.035Z,6.70
2019-02-15T16:05:35.821Z,6.90
2019-02-15T16:08:05.579Z,7.87
2019-02-15T16:10:35.235Z,7.50
2019-02-15T16:13:05.289Z,6.30
2019-02-15T16:15:35.153Z,7.60
2019-02-15T16:18:04.935Z,8.33
2019-02-15T16:20:34.694Z,6.73
2019-02-15T16:23:04.501Z,6.17
2019-02-15T16:25:34.098Z,7.03
2019-02-15T16:28:03.833Z,11.10
2019-02-15T16:30:33.495Z,3.97
2019-02-15T16:33:03.568Z,7.83
2019-02-15T16:35:33.257Z,10.17
2019-02-15T16:38:02.925Z,11.50
2019-02-15T16:40:32.732Z,8.97
2019-02-15T16:43:21.838Z,10.90
2019-02-15T16:45:51.536Z,8.67
2019-02-15T16:48:21.262Z,9.73
2019-02-15T16:50:50.959Z,8.23
2019-02-15T16:53:20.611Z,12.90
2019-02-15T16:55:50.295Z,9.77
2019-02-15T16:58:20.063Z,8.67
2019-02-15T17:00:49.824Z,8.87
2019-02-15T17:03:19.424Z,12.20
2019-02-15T17:05:49.092Z,10.13
2019-02-15T17:08:18.851Z,10.70
2019-02-15T17:10:48.602Z,10.03
2019-02-15T17:13:18.313Z,13.20
2019-02-15T17:15:48.133Z,9.70
2019-02-15T17:18:18.016Z,11.83
2019-02-15T17:20:47.775Z,6.97
2019-02-15T17:23:17.431Z,11.73
2019-02-15T17:25:47.128Z,11.73
2019-02-15T17:28:16.835Z,11.80
2019-02-15T17:30:46.592Z,11.63
2019-02-15T17:33:16.304Z,10.60
2019-02-15T17:35:45.957Z,9.17
2019-02-15T17:38:15.650Z,9.80
2019-02-15T17:40:45.613Z,12.53
2019-02-15T17:43:15.247Z,8.50
2019-02-15T17:45:44.868Z,7.50
2019-02-15T17:48:14.572Z,8.80
2019-02-15T17:50:44.346Z,10.97
2019-02-15T17:53:13.970Z,16.60
2019-02-15T17:55:43.728Z,17.20
2019-02-15T17:58:13.372Z,8.77
2019-02-15T18:00:43.073Z,10.60
2019-02-15T18:03:13.009Z,10.77
2019-02-15T18:05:42.689Z,10.93
2019-02-15T18:08:31.771Z,10.80
2019-02-15T18:11:01.398Z,11.70
2019-02-15T18:13:31.024Z,11.13
2019-02-15T18:16:00.819Z,15.10
2019-02-15T18:18:30.517Z,11.70
2019-02-15T18:21:00.640Z,15.73
2019-02-15T18:23:30.309Z,7.90
2019-02-15T18:26:00.034Z,15.57
2019-02-15T18:28:29.732Z,13.47
2019-02-15T18:30:59.493Z,12.93
2019-02-15T18:33:29.161Z,12.57
2019-02-15T18:36:18.171Z,10.60
2019-02-15T18:38:48.158Z,10.40
2019-02-15T18:41:17.813Z,13.00
2019-02-15T18:43:47.528Z,13.17
2019-02-15T18:46:17.255Z,15.50
2019-02-15T18:48:47.054Z,15.13
2019-02-15T18:51:16.816Z,12.83
2019-02-15T18:53:46.595Z,14.83
2019-02-15T18:56:16.219Z,11.60
2019-02-15T18:58:45.938Z,12.70
2019-02-15T19:01:15.870Z,13.37
2019-02-15T19:03:45.769Z,12.07
2019-02-15T19:06:15.582Z,17.23
2019-02-15T19:08:45.596Z,12.60
2019-02-15T19:11:15.340Z,17.23
2019-02-15T19:13:45.037Z,14.57
2019-02-15T19:16:14.855Z,15.80
2019-02-15T19:18:44.530Z,12.70
2019-02-15T19:21:14.668Z,14.90
2019-02-15T19:23:45.977Z,11.80
2019-02-15T19:26:15.866Z,15.40
2019-02-15T19:28:45.497Z,13.17
2019-02-15T19:31:15.539Z,11.10
2019-02-15T19:33:45.137Z,13.27
2019-02-15T19:36:14.838Z,13.87
2019-02-15T19:38:44.672Z,12.40
2019-02-15T19:41:14.355Z,15.47
2019-02-15T19:43:44.046Z,12.93
2019-02-15T19:46:13.745Z,14.07
2019-02-15T19:48:43.464Z,11.87
2019-02-15T19:51:13.302Z,13.20
2019-02-15T19:53:43.103Z,11.10
2019-02-15T19:56:13.007Z,12.20
2019-02-15T19:58:43.753Z,15.60
2019-02-15T20:01:13.874Z,14.07
2019-02-15T20:03:43.488Z,11.37
2019-02-15T20:06:13.258Z,13.60
2019-02-15T20:08:43.054Z,14.00
2019-02-15T20:11:13.165Z,11.20
2019-02-15T20:13:42.915Z,13.50
2019-02-15T20:16:12.670Z,13.57
2019-02-15T20:18:42.456Z,12.57
2019-02-15T20:21:12.095Z,15.10
2019-02-15T20:23:41.793Z,10.73
2019-02-15T20:26:14.633Z,14.43
2019-02-15T20:28:44.360Z,14.23
2019-02-15T20:31:14.041Z,11.33
2019-02-15T20:33:43.878Z,12.97
2019-02-15T20:36:13.756Z,13.17
2019-02-15T20:38:43.427Z,12.83
2019-02-15T20:41:13.127Z,12.90
2019-02-15T20:43:42.995Z,12.27
2019-02-15T20:46:12.657Z,16.10
2019-02-15T20:48:43.435Z,10.83
2019-02-15T20:51:13.199Z,15.37
2019-02-15T20:53:42.845Z,11.40
2019-02-15T20:56:12.483Z,12.30
2019-02-15T20:58:42.150Z,11.70
2019-02-15T21:01:11.829Z,11.37
2019-02-15T21:03:41.544Z,17.97
2019-02-15T21:06:11.451Z,16.73
2019-02-15T21:08:41.304Z,15.57
2019-02-15T21:11:11.226Z,13.23
2019-02-15T21:13:41.226Z,13.90
2019-02-15T21:16:10.886Z,12.37
2019-02-15T21:18:40.675Z,14.97
2019-02-15T21:21:10.383Z,13.93
2019-02-15T21:23:40.171Z,13.33
2019-02-15T21:26:09.854Z,14.80
2019-02-15T21:28:39.538Z,16.00
2019-02-15T21:31:09.165Z,9.77
2019-02-15T21:33:38.872Z,11.37
2019-02-15T21:36:08.891Z,15.83
2019-02-15T21:38:38.611Z,14.57
2019-02-15T21:41:08.248Z,10.33
2019-02-15T21:43:38.030Z,11.80
2019-02-15T21:46:07.686Z,12.07
2019-02-15T21:48:37.360Z,16.97
2019-02-15T21:51:07.031Z,15.87
2019-02-15T21:53:36.879Z,15.30
2019-02-15T21:56:06.578Z,13.77
2019-02-15T21:58:36.353Z,14.37
2019-02-15T22:01:07.081Z,13.13
2019-02-15T22:03:36.830Z,13.00
2019-02-15T22:06:06.453Z,11.53
2019-02-15T22:08:37.072Z,15.30
2019-02-15T22:11:06.774Z,12.83
2019-02-15T22:13:36.465Z,12.73
2019-02-15T22:16:06.274Z,13.77
2019-02-15T22:18:36.234Z,14.40
2019-02-15T22:21:05.798Z,13.83
2019-02-15T22:23:35.423Z,14.63
2019-02-15T22:26:05.131Z,12.60
2019-02-15T22:28:34.852Z,12.57
2019-02-15T22:31:04.560Z,13.83
2019-02-15T22:33:34.292Z,13.70
2019-02-15T22:36:04.400Z,10.50
2019-02-15T22:38:34.183Z,13.17
2019-02-15T22:41:06.898Z,12.77
2019-02-15T22:43:36.566Z,13.47
2019-02-15T22:46:06.415Z,13.40
2019-02-15T22:48:36.067Z,11.07
2019-02-15T22:51:05.786Z,14.60
2019-02-15T22:53:35.540Z,13.40
2019-02-15T22:56:05.311Z,15.90
2019-02-15T22:58:35.032Z,11.73
2019-02-15T23:01:08.711Z,14.10
2019-02-15T23:03:38.875Z,12.70
2019-02-15T23:06:09.065Z,16.50
2019-02-15T23:08:39.054Z,14.03
2019-02-15T23:11:09.011Z,13.30
2019-02-15T23:13:40.540Z,13.03
2019-02-15T23:16:10.609Z,13.27
2019-02-15T23:18:40.863Z,11.03
2019-02-15T23:21:10.538Z,13.40
2019-02-15T23:23:40.392Z,11.93
2019-02-15T23:26:10.000Z,12.97
2019-02-15T23:28:39.750Z,14.77
2019-02-15T23:31:09.479Z,13.33
2019-02-15T23:33:39.115Z,13.70
2019-02-15T23:36:08.795Z,13.53
2019-02-15T23:38:38.415Z,10.70
2019-02-15T23:41:08.123Z,13.43
2019-02-15T23:43:37.778Z,17.10
2019-02-15T23:46:07.484Z,11.03
2019-02-15T23:48:37.546Z,11.37
2019-02-15T23:51:07.913Z,12.33
2019-02-15T23:53:37.917Z,9.60
2019-02-15T23:56:08.214Z,10.83
2019-02-15T23:58:38.331Z,12.00
